createdAt,value
2018-03-23T00:00:20.356Z,32.80
2018-03-23T00:02:46.709Z,32.33
2018-03-23T00:05:13.840Z,34.87
2018-03-23T00:07:47.252Z,30.70
2018-03-23T00:10:13.586Z,28.93
2018-03-23T00:12:39.894Z,31.47
2018-03-23T00:15:06.312Z,29.37
2018-03-23T00:17:32.587Z,29.60
2018-03-23T00:19:59.658Z,30.83
2018-03-23T00:22:26.016Z,29.20
2018-03-23T00:24:52.397Z,29.43
2018-03-23T00:27:20.233Z,30.07
2018-03-23T00:29:47.376Z,28.27
2018-03-23T00:32:13.726Z,33.20
2018-03-23T00:34:40.793Z,31.13
2018-03-23T00:37:07.100Z,28.57
2018-03-23T00:39:34.216Z,30.70
2018-03-23T00:42:00.552Z,28.97
2018-03-23T00:44:26.914Z,29.00
2018-03-23T00:46:53.331Z,29.00
2018-03-23T00:49:20.571Z,30.63
2018-03-23T00:51:47.680Z,29.43
2018-03-23T00:54:14.012Z,32.07
2018-03-23T00:56:41.158Z,30.03
2018-03-23T00:59:07.547Z,29.40
2018-03-23T01:01:34.630Z,30.23
2018-03-23T01:04:00.992Z,28.60
2018-03-23T01:06:27.398Z,29.10
2018-03-23T01:08:54.488Z,26.90
2018-03-23T01:11:20.855Z,29.77
2018-03-23T01:13:47.240Z,30.70
2018-03-23T01:16:13.660Z,29.40
2018-03-23T01:18:40.024Z,26.77
2018-03-23T01:21:06.400Z,27.60
2018-03-23T01:23:32.731Z,26.80
2018-03-23T01:25:59.196Z,28.60
2018-03-23T01:28:25.572Z,29.03
2018-03-23T01:30:51.984Z,27.50
2018-03-23T01:33:19.084Z,33.67
2018-03-23T01:35:45.505Z,32.63
2018-03-23T01:38:11.864Z,34.87
2018-03-23T01:40:38.208Z,35.80
2018-03-23T01:43:04.539Z,34.83
2018-03-23T01:45:30.943Z,33.97
2018-03-23T01:47:57.356Z,31.50
2018-03-23T01:50:23.727Z,33.70
2018-03-23T01:52:50.081Z,30.10
2018-03-23T01:55:16.547Z,30.03
2018-03-23T01:57:42.917Z,33.53
2018-03-23T02:00:09.235Z,32.20
2018-03-23T02:02:35.584Z,36.17
2018-03-23T02:05:01.931Z,35.00
2018-03-23T02:07:29.087Z,39.00
2018-03-23T02:09:55.411Z,31.00
2018-03-23T02:12:21.795Z,38.27
2018-03-23T02:14:48.920Z,38.80
2018-03-23T02:17:15.375Z,41.43
2018-03-23T02:19:41.787Z,36.20
2018-03-23T02:22:08.903Z,38.57
2018-03-23T02:24:36.041Z,40.90
2018-03-23T02:27:02.483Z,43.00
2018-03-23T02:29:28.841Z,42.17
2018-03-23T02:31:55.225Z,39.57
2018-03-23T02:34:21.568Z,38.53
2018-03-23T02:36:48.813Z,41.77
2018-03-23T02:39:15.957Z,41.30
2018-03-23T02:41:43.827Z,39.13
2018-03-23T02:44:11.008Z,37.30
2018-03-23T02:46:37.373Z,40.07
2018-03-23T02:49:04.498Z,41.40
2018-03-23T02:51:30.833Z,37.03
2018-03-23T02:53:57.217Z,41.63
2018-03-23T02:56:23.591Z,38.67
2018-03-23T02:58:49.994Z,40.90
2018-03-23T03:01:17.116Z,34.60
2018-03-23T03:03:43.554Z,36.60
2018-03-23T03:06:09.926Z,35.70
2018-03-23T03:08:37.059Z,39.50
2018-03-23T03:11:03.464Z,35.60
2018-03-23T03:13:29.869Z,36.53
2018-03-23T03:15:56.207Z,39.40
2018-03-23T03:18:22.584Z,38.97
2018-03-23T03:20:48.919Z,37.00
2018-03-23T03:23:15.304Z,39.87
2018-03-23T03:25:41.712Z,39.67
2018-03-23T03:28:08.091Z,40.63
2018-03-23T03:30:34.553Z,43.40
2018-03-23T03:33:00.921Z,37.93
2018-03-23T03:35:28.784Z,40.60
2018-03-23T03:37:55.243Z,42.00
2018-03-23T03:40:21.615Z,41.80
2018-03-23T03:42:48.736Z,39.47
2018-03-23T03:45:15.139Z,36.67
2018-03-23T03:47:41.525Z,36.97
2018-03-23T03:50:07.968Z,36.57
2018-03-23T03:52:34.336Z,36.07
2018-03-23T03:55:00.748Z,37.03
2018-03-23T03:57:27.148Z,34.03
2018-03-23T03:59:54.267Z,35.97
2018-03-23T04:02:20.636Z,31.60
2018-03-23T04:04:47.000Z,30.87
2018-03-23T04:07:14.078Z,27.03
2018-03-23T04:09:40.587Z,30.43
2018-03-23T04:12:06.979Z,25.67
2018-03-23T04:14:33.403Z,21.80
2018-03-23T04:17:00.481Z,26.30
2018-03-23T04:19:26.845Z,22.97
2018-03-23T04:21:53.309Z,19.03
2018-03-23T04:24:20.454Z,22.53
2018-03-23T04:26:46.818Z,18.53
2018-03-23T04:29:13.229Z,20.60
2018-03-23T04:31:39.649Z,22.30
2018-03-23T04:34:06.007Z,22.50
2018-03-23T04:36:32.361Z,22.27
2018-03-23T04:38:58.691Z,25.07
2018-03-23T04:41:25.075Z,25.20
2018-03-23T04:43:51.428Z,22.60
2018-03-23T04:46:17.804Z,24.20
2018-03-23T04:48:44.225Z,21.57
2018-03-23T04:51:10.627Z,21.20
2018-03-23T04:53:36.996Z,20.67
2018-03-23T04:56:04.757Z,23.83
2018-03-23T04:58:32.640Z,21.17
2018-03-23T05:00:59.023Z,18.53
2018-03-23T05:03:25.404Z,21.20
2018-03-23T05:05:51.840Z,20.10
2018-03-23T05:08:18.388Z,20.40
2018-03-23T05:10:45.144Z,18.77
2018-03-23T05:13:11.596Z,18.77
2018-03-23T05:15:38.182Z,19.10
2018-03-23T05:18:05.847Z,19.77
2018-03-23T05:20:32.279Z,19.50
2018-03-23T05:22:58.773Z,18.70
2018-03-23T05:25:26.196Z,15.83
2018-03-23T05:27:53.660Z,17.00
2018-03-23T05:30:20.843Z,19.00
2018-03-23T05:32:47.296Z,16.10
2018-03-23T05:35:14.483Z,17.60
2018-03-23T05:37:40.876Z,14.70
2018-03-23T05:40:07.850Z,17.80
2018-03-23T05:42:35.768Z,14.10
2018-03-23T05:45:02.209Z,16.77
2018-03-23T05:47:29.469Z,17.20
2018-03-23T05:49:55.896Z,15.73
2018-03-23T05:52:23.092Z,14.97
2018-03-23T05:54:49.503Z,15.53
2018-03-23T05:57:16.716Z,16.30
2018-03-23T05:59:43.840Z,14.10
2018-03-23T06:02:10.277Z,15.73
2018-03-23T06:04:36.832Z,15.80
2018-03-23T06:07:03.299Z,14.87
2018-03-23T06:09:30.431Z,15.20
2018-03-23T06:11:56.845Z,14.53
2018-03-23T06:14:23.973Z,15.47
2018-03-23T06:16:50.452Z,15.40
2018-03-23T06:19:16.896Z,13.67
2018-03-23T06:21:44.148Z,13.53
2018-03-23T06:24:10.624Z,12.57
2018-03-23T06:26:37.099Z,13.40
2018-03-23T06:29:03.532Z,15.00
2018-03-23T06:31:29.932Z,12.67
2018-03-23T06:33:56.696Z,15.67
2018-03-23T06:36:23.873Z,13.87
2018-03-23T06:38:50.337Z,14.20
2018-03-23T06:41:17.745Z,12.80
2018-03-23T06:43:44.376Z,14.53
2018-03-23T06:46:10.819Z,11.90
2018-03-23T06:48:37.240Z,15.00
2018-03-23T06:51:03.636Z,13.17
2018-03-23T06:53:30.066Z,13.43
2018-03-23T06:55:57.218Z,13.73
2018-03-23T06:58:24.384Z,14.00
2018-03-23T07:00:50.794Z,12.50
2018-03-23T07:03:17.220Z,13.27
2018-03-23T07:05:43.631Z,12.07
2018-03-23T07:08:10.828Z,12.60
2018-03-23T07:10:37.279Z,13.57
2018-03-23T07:13:04.429Z,12.60
2018-03-23T07:15:31.560Z,12.30
2018-03-23T07:17:58.800Z,13.00
2018-03-23T07:20:25.248Z,12.13
2018-03-23T07:22:51.616Z,12.07
2018-03-23T07:25:18.078Z,12.27
2018-03-23T07:27:44.566Z,12.80
2018-03-23T07:30:11.024Z,10.93
2018-03-23T07:32:44.619Z,12.73
2018-03-23T07:35:11.866Z,11.17
2018-03-23T07:37:38.282Z,11.50
2018-03-23T07:40:05.790Z,10.27
2018-03-23T07:42:32.160Z,10.50
2018-03-23T07:44:59.385Z,11.70
2018-03-23T07:47:25.813Z,11.00
2018-03-23T07:52:46.047Z,10.50
2018-03-23T07:55:12.466Z,9.30
2018-03-23T07:57:38.879Z,9.50
2018-03-23T08:00:05.723Z,11.67
2018-03-23T08:02:32.179Z,10.77
2018-03-23T08:04:58.631Z,11.43
2018-03-23T08:07:25.003Z,10.47
2018-03-23T08:09:51.372Z,11.53
2018-03-23T08:12:18.397Z,10.03
2018-03-23T08:14:44.955Z,8.97
2018-03-23T08:17:11.348Z,8.03
2018-03-23T08:19:38.480Z,9.93
2018-03-23T08:22:05.352Z,10.90
2018-03-23T08:24:31.707Z,10.50
2018-03-23T08:26:58.853Z,11.20
2018-03-23T08:29:26.712Z,8.60
2018-03-23T08:31:53.144Z,9.80
2018-03-23T08:34:19.665Z,9.20
2018-03-23T08:36:46.081Z,8.47
2018-03-23T08:39:12.476Z,8.43
2018-03-23T08:41:39.591Z,8.57
2018-03-23T08:44:05.976Z,9.30
2018-03-23T08:46:33.117Z,8.67
2018-03-23T08:48:59.540Z,8.90
2018-03-23T08:51:25.985Z,8.90
2018-03-23T08:53:52.409Z,10.00
2018-03-23T08:56:18.820Z,9.37
2018-03-23T08:58:45.225Z,7.30
2018-03-23T09:01:13.125Z,9.50
2018-03-23T09:03:39.457Z,8.23
2018-03-23T09:06:05.878Z,10.60
2018-03-23T09:08:32.303Z,8.50
2018-03-23T09:10:58.787Z,9.47
2018-03-23T09:13:25.194Z,9.30
2018-03-23T09:15:51.620Z,9.70
2018-03-23T09:18:18.841Z,9.90
2018-03-23T09:20:45.213Z,9.33
2018-03-23T09:23:11.624Z,7.70
2018-03-23T09:25:38.031Z,9.53
2018-03-23T09:28:05.220Z,8.80
2018-03-23T09:30:31.585Z,9.07
2018-03-23T09:32:58.030Z,9.30
2018-03-23T09:35:24.481Z,7.03
2018-03-23T09:37:50.914Z,8.40
2018-03-23T09:40:17.316Z,8.70
2018-03-23T09:42:43.767Z,7.90
2018-03-23T09:45:10.920Z,8.73
2018-03-23T09:47:37.382Z,8.30
2018-03-23T09:50:03.876Z,7.47
2018-03-23T09:52:30.248Z,8.27
2018-03-23T09:54:56.671Z,8.27
2018-03-23T09:57:23.831Z,10.00
2018-03-23T09:59:50.288Z,10.03
2018-03-23T10:02:16.736Z,7.80
2018-03-23T10:04:43.245Z,8.20
2018-03-23T10:07:09.581Z,8.43
2018-03-23T10:09:36.006Z,8.63
2018-03-23T10:12:02.452Z,7.77
2018-03-23T10:14:29.050Z,8.03
2018-03-23T10:16:55.392Z,9.20
2018-03-23T10:19:22.531Z,7.77
2018-03-23T10:21:48.931Z,8.30
2018-03-23T10:24:15.355Z,7.00
2018-03-23T10:26:42.484Z,8.63
2018-03-23T10:29:08.972Z,8.80
2018-03-23T10:31:36.113Z,6.57
2018-03-23T10:34:02.639Z,6.27
2018-03-23T10:36:29.818Z,6.03
2018-03-23T10:38:56.225Z,6.63
2018-03-23T10:41:22.644Z,6.93
2018-03-23T10:43:49.440Z,7.73
2018-03-23T10:46:15.832Z,6.10
2018-03-23T10:48:42.295Z,7.60
2018-03-23T10:51:08.676Z,7.00
2018-03-23T10:53:35.256Z,6.80
2018-03-23T10:56:02.436Z,7.50
2018-03-23T10:58:28.834Z,7.33
2018-03-23T11:01:01.290Z,6.67
2018-03-23T11:03:27.748Z,7.47
2018-03-23T11:05:54.156Z,7.50
2018-03-23T11:08:21.276Z,8.23
2018-03-23T11:10:47.672Z,8.47
2018-03-23T11:13:14.117Z,9.03
2018-03-23T11:15:40.573Z,7.80
2018-03-23T11:18:07.696Z,8.77
2018-03-23T11:20:34.158Z,8.60
2018-03-23T11:23:01.344Z,8.30
2018-03-23T11:25:28.525Z,8.90
2018-03-23T11:27:54.932Z,8.00
2018-03-23T11:30:21.413Z,9.10
2018-03-23T11:32:48.565Z,6.53
2018-03-23T11:35:15.722Z,7.73
2018-03-23T11:37:42.868Z,7.43
2018-03-23T11:40:09.327Z,7.00
2018-03-23T11:42:35.772Z,3.93
2018-03-23T11:45:02.956Z,6.50
2018-03-23T11:47:30.100Z,5.07
2018-03-23T11:49:56.534Z,5.87
2018-03-23T11:52:23.047Z,5.33
2018-03-23T11:54:49.495Z,4.80
2018-03-23T11:57:15.975Z,4.87
2018-03-23T11:59:42.416Z,4.97
2018-03-23T12:02:08.923Z,5.23
2018-03-23T12:04:35.326Z,2.73
2018-03-23T12:07:02.536Z,5.70
2018-03-23T12:09:28.928Z,4.23
2018-03-23T12:11:56.116Z,4.23
2018-03-23T12:14:22.577Z,5.40
2018-03-23T12:16:49.735Z,4.40
2018-03-23T12:19:16.198Z,4.83
2018-03-23T12:21:43.426Z,4.80
2018-03-23T12:24:09.829Z,4.63
2018-03-23T12:26:36.288Z,3.97
2018-03-23T12:29:02.735Z,5.07
2018-03-23T12:31:29.173Z,6.33
2018-03-23T12:33:55.552Z,5.10
2018-03-23T12:36:22.056Z,5.20
2018-03-23T12:38:48.452Z,3.90
2018-03-23T12:41:14.903Z,5.60
2018-03-23T12:43:41.345Z,4.20
2018-03-23T12:46:07.720Z,4.90
2018-03-23T12:48:34.159Z,6.33
2018-03-23T12:51:00.597Z,4.67
2018-03-23T12:53:26.999Z,4.80
2018-03-23T12:55:53.400Z,3.67
2018-03-23T12:58:19.849Z,6.00
2018-03-23T13:00:46.205Z,4.60
2018-03-23T13:03:12.596Z,3.83
2018-03-23T13:05:39.001Z,4.43
2018-03-23T13:08:06.140Z,4.13
2018-03-23T13:10:33.424Z,5.47
2018-03-23T13:13:07.640Z,5.67
2018-03-23T13:15:34.821Z,5.63
2018-03-23T13:18:01.989Z,5.73
2018-03-23T13:20:28.454Z,5.97
2018-03-23T13:22:55.880Z,6.30
2018-03-23T13:25:22.319Z,6.60
2018-03-23T13:27:48.688Z,6.83
2018-03-23T13:30:15.100Z,6.27
2018-03-23T13:32:41.504Z,7.73
2018-03-23T13:35:07.939Z,7.40
2018-03-23T13:37:34.340Z,6.00
2018-03-23T13:40:00.749Z,8.07
2018-03-23T13:42:27.134Z,7.00
2018-03-23T13:44:54.677Z,7.00
2018-03-23T13:47:21.866Z,8.73
2018-03-23T13:49:48.262Z,8.77
2018-03-23T13:52:15.471Z,6.93
2018-03-23T13:54:41.888Z,7.70
2018-03-23T13:57:08.422Z,9.33
2018-03-23T13:59:41.052Z,8.77
2018-03-23T14:02:07.474Z,10.87
2018-03-23T14:04:34.670Z,8.67
2018-03-23T14:07:01.128Z,10.10
2018-03-23T14:09:27.598Z,8.83
2018-03-23T14:11:54.042Z,10.27
2018-03-23T14:14:20.478Z,10.67
2018-03-23T14:16:47.595Z,9.73
2018-03-23T14:19:14.030Z,10.97
2018-03-23T14:21:40.448Z,11.70
2018-03-23T14:24:07.084Z,11.10
2018-03-23T14:26:33.560Z,11.07
2018-03-23T14:28:59.966Z,12.50
2018-03-23T14:31:27.093Z,9.90
2018-03-23T14:33:53.523Z,9.93
2018-03-23T14:36:20.090Z,11.97
2018-03-23T14:38:47.252Z,11.60
2018-03-23T14:41:13.738Z,12.70
2018-03-23T14:43:40.283Z,9.60
2018-03-23T14:46:07.441Z,12.13
2018-03-23T14:48:34.585Z,9.53
2018-03-23T14:51:01.780Z,10.60
2018-03-23T14:53:28.937Z,9.17
2018-03-23T14:55:56.091Z,10.47
2018-03-23T14:58:22.476Z,9.80
2018-03-23T15:00:49.644Z,10.47
2018-03-23T15:03:16.100Z,11.03
2018-03-23T15:05:42.476Z,10.53
2018-03-23T15:08:08.884Z,10.63
2018-03-23T15:10:35.393Z,9.43
2018-03-23T15:13:01.763Z,9.87
2018-03-23T15:15:28.916Z,10.50
2018-03-23T15:17:56.088Z,9.50
2018-03-23T15:20:22.520Z,8.57
2018-03-23T15:22:48.978Z,9.03
2018-03-23T15:25:15.339Z,9.27
2018-03-23T15:27:41.789Z,10.13
2018-03-23T15:30:08.245Z,8.70
2018-03-23T15:32:34.672Z,8.60
2018-03-23T15:35:01.113Z,9.00
2018-03-23T15:37:27.550Z,9.30
2018-03-23T15:39:53.979Z,11.13
2018-03-23T15:42:20.398Z,9.30
2018-03-23T15:44:46.830Z,9.40
2018-03-23T15:47:13.232Z,9.30
2018-03-23T15:49:39.639Z,8.67
2018-03-23T15:52:06.091Z,8.83
2018-03-23T15:54:32.483Z,9.73
2018-03-23T15:56:59.640Z,7.70
2018-03-23T15:59:26.068Z,8.40
2018-03-23T16:01:52.473Z,8.67
2018-03-23T16:04:18.875Z,8.10
2018-03-23T16:06:45.286Z,7.17
2018-03-23T16:09:11.703Z,6.20
2018-03-23T16:11:38.864Z,6.80
2018-03-23T16:14:06.032Z,7.93
2018-03-23T16:16:33.225Z,7.73
2018-03-23T16:18:59.644Z,7.20
2018-03-23T16:21:26.077Z,7.00
2018-03-23T16:23:52.510Z,6.60
2018-03-23T16:26:19.025Z,7.10
2018-03-23T16:28:45.487Z,8.10
2018-03-23T16:31:12.664Z,7.63
2018-03-23T16:33:39.124Z,7.07
2018-03-23T16:36:05.590Z,7.90
2018-03-23T16:38:32.050Z,8.30
2018-03-23T16:40:58.425Z,7.83
2018-03-23T16:43:25.642Z,7.90
2018-03-23T16:45:53.491Z,7.97
2018-03-23T16:48:19.912Z,8.03
2018-03-23T16:50:46.308Z,8.60
2018-03-23T16:53:13.461Z,6.87
2018-03-23T16:55:40.648Z,7.70
2018-03-23T16:58:07.792Z,8.03
2018-03-23T17:00:34.177Z,7.27
2018-03-23T17:03:00.577Z,7.43
2018-03-23T17:05:27.821Z,7.80
2018-03-23T17:07:54.245Z,8.20
2018-03-23T17:10:20.657Z,8.03
2018-03-23T17:12:48.570Z,8.57
2018-03-23T17:15:14.954Z,7.37
2018-03-23T17:17:41.337Z,8.00
2018-03-23T17:20:08.637Z,7.80
2018-03-23T17:22:35.742Z,9.37
2018-03-23T17:25:02.236Z,8.70
2018-03-23T17:27:28.729Z,7.70
2018-03-23T17:29:55.122Z,8.47
2018-03-23T17:32:21.847Z,8.70
2018-03-23T17:34:49.019Z,8.13
2018-03-23T17:37:16.119Z,7.40
2018-03-23T17:39:42.557Z,8.50
2018-03-23T17:42:09.017Z,7.97
2018-03-23T17:44:36.292Z,8.03
2018-03-23T17:47:02.713Z,7.83
2018-03-23T17:49:29.112Z,8.53
2018-03-23T17:51:55.535Z,7.30
2018-03-23T17:54:21.971Z,8.13
2018-03-23T17:56:48.392Z,7.83
2018-03-23T17:59:15.041Z,7.70
2018-03-23T18:01:41.458Z,7.73
2018-03-23T18:04:09.447Z,7.53
2018-03-23T18:06:35.920Z,7.37
2018-03-23T18:09:03.203Z,6.20
2018-03-23T18:11:29.701Z,7.53
2018-03-23T18:13:56.129Z,6.70
2018-03-23T18:16:22.532Z,7.80
2018-03-23T18:18:48.970Z,7.40
2018-03-23T18:21:15.334Z,8.70
2018-03-23T18:23:41.725Z,8.00
2018-03-23T18:26:08.183Z,8.47
2018-03-23T18:28:34.556Z,9.23
2018-03-23T18:31:02.023Z,8.00
2018-03-23T18:33:28.468Z,8.70
2018-03-23T18:35:54.856Z,8.00
2018-03-23T18:38:21.198Z,7.23
2018-03-23T18:40:47.612Z,8.33
2018-03-23T18:43:14.724Z,8.10
2018-03-23T18:45:41.096Z,8.27
2018-03-23T18:48:07.460Z,7.93
2018-03-23T18:50:33.827Z,8.70
2018-03-23T18:53:00.239Z,11.03
2018-03-23T18:55:26.593Z,11.23
2018-03-23T18:57:53.673Z,6.80
2018-03-23T19:00:20.019Z,7.67
2018-03-23T19:02:47.132Z,9.63
2018-03-23T19:05:13.488Z,7.10
2018-03-23T19:07:41.389Z,8.43
2018-03-23T19:10:08.544Z,8.20
2018-03-23T19:12:36.377Z,6.00
2018-03-23T19:15:03.841Z,7.00
2018-03-23T19:17:31.007Z,7.93
2018-03-23T19:19:57.355Z,8.27
2018-03-23T19:22:23.815Z,7.50
2018-03-23T19:24:50.948Z,7.00
2018-03-23T19:27:17.393Z,8.50
2018-03-23T19:29:43.756Z,7.43
2018-03-23T19:32:10.852Z,9.23
2018-03-23T19:34:37.272Z,8.10
2018-03-23T19:37:03.646Z,8.00
2018-03-23T19:39:30.032Z,7.20
2018-03-23T19:41:56.419Z,8.13
2018-03-23T19:44:23.573Z,6.70
2018-03-23T19:46:49.908Z,7.20
2018-03-23T19:49:16.266Z,7.10
2018-03-23T19:51:42.628Z,8.20
2018-03-23T19:54:09.724Z,8.33
2018-03-23T19:56:36.136Z,6.23
2018-03-23T19:59:02.475Z,5.57
2018-03-23T20:01:28.871Z,7.13
2018-03-23T20:03:56.016Z,7.60
2018-03-23T20:06:22.412Z,6.50
2018-03-23T20:08:48.723Z,6.10
2018-03-23T20:11:15.096Z,6.70
2018-03-23T20:13:42.506Z,6.87
2018-03-23T20:16:08.881Z,7.23
2018-03-23T20:18:35.380Z,6.40
2018-03-23T20:21:01.788Z,6.90
2018-03-23T20:23:28.123Z,5.73
2018-03-23T20:25:55.264Z,6.37
2018-03-23T20:28:29.306Z,6.03
2018-03-23T20:30:55.714Z,7.10
2018-03-23T20:33:22.072Z,6.70
2018-03-23T20:35:48.467Z,7.00
2018-03-23T20:38:15.551Z,6.27
2018-03-23T20:40:41.952Z,7.30
2018-03-23T20:43:08.343Z,5.97
2018-03-23T20:45:36.264Z,7.17
2018-03-23T20:48:02.662Z,6.57
2018-03-23T20:50:29.025Z,6.10
2018-03-23T20:52:55.385Z,7.00
2018-03-23T20:55:21.741Z,5.50
2018-03-23T20:57:48.205Z,6.30
2018-03-23T21:00:15.309Z,6.57
2018-03-23T21:02:41.724Z,6.43
2018-03-23T21:05:08.128Z,6.03
2018-03-23T21:07:34.468Z,7.93
2018-03-23T21:10:00.808Z,5.93
2018-03-23T21:12:27.170Z,6.00
2018-03-23T21:14:54.304Z,6.30
2018-03-23T21:17:21.464Z,6.90
2018-03-23T21:19:47.847Z,6.73
2018-03-23T21:22:14.240Z,6.63
2018-03-23T21:24:40.584Z,7.20
2018-03-23T21:27:06.928Z,6.10
2018-03-23T21:29:33.322Z,5.83
2018-03-23T21:31:59.620Z,6.37
2018-03-23T21:34:26.002Z,6.80
2018-03-23T21:36:52.440Z,7.20
2018-03-23T21:39:18.835Z,6.30
2018-03-23T21:41:45.228Z,5.40
2018-03-23T21:44:12.368Z,7.43
2018-03-23T21:46:39.488Z,7.43
2018-03-23T21:49:05.895Z,7.50
2018-03-23T21:51:32.260Z,7.87
2018-03-23T21:53:58.654Z,7.57
2018-03-23T21:56:25.018Z,6.00
2018-03-23T21:58:51.530Z,8.27
2018-03-23T22:01:17.889Z,6.87
2018-03-23T22:03:44.225Z,7.20
2018-03-23T22:06:10.577Z,6.90
2018-03-23T22:08:37.760Z,7.53
2018-03-23T22:11:04.160Z,6.90
2018-03-23T22:13:30.570Z,8.43
2018-03-23T22:15:57.683Z,6.80
2018-03-23T22:18:24.800Z,7.00
2018-03-23T22:20:51.957Z,7.27
2018-03-23T22:23:18.325Z,7.07
2018-03-23T22:25:44.708Z,8.70
2018-03-23T22:28:11.087Z,9.07
2018-03-23T22:30:38.195Z,6.60
2018-03-23T22:33:04.547Z,8.87
2018-03-23T22:35:30.862Z,7.70
2018-03-23T22:37:57.223Z,8.17
2018-03-23T22:40:23.593Z,7.47
2018-03-23T22:42:50.708Z,8.77
2018-03-23T22:45:17.077Z,8.53
2018-03-23T22:47:44.233Z,7.83
2018-03-23T22:50:10.588Z,7.60
2018-03-23T22:52:36.960Z,7.90
2018-03-23T22:55:03.656Z,8.20
2018-03-23T22:57:30.817Z,7.37
2018-03-23T22:59:57.210Z,7.27
2018-03-23T23:02:24.307Z,7.57
2018-03-23T23:04:50.636Z,7.87
2018-03-23T23:07:17.005Z,9.20
2018-03-23T23:09:43.361Z,7.83
2018-03-23T23:12:09.704Z,6.90
2018-03-23T23:14:36.103Z,7.90
2018-03-23T23:17:02.488Z,8.90
2018-03-23T23:19:28.881Z,7.20
2018-03-23T23:21:55.971Z,8.40
2018-03-23T23:24:22.369Z,8.33
2018-03-23T23:26:48.725Z,7.80
2018-03-23T23:29:15.835Z,7.60
2018-03-23T23:31:42.187Z,8.37
2018-03-23T23:34:08.567Z,9.07
2018-03-23T23:36:35.692Z,10.20
2018-03-23T23:39:02.131Z,8.47
2018-03-23T23:41:28.468Z,9.10
2018-03-23T23:43:54.840Z,7.47
2018-03-23T23:46:21.960Z,8.10
2018-03-23T23:48:48.297Z,8.60
2018-03-23T23:51:14.635Z,9.50
2018-03-23T23:53:41.012Z,7.70
2018-03-23T23:56:08.160Z,8.77
2018-03-23T23:58:34.524Z,8.57
